Spray, Oregon
Current Conditions -  °F | °C
As of 11:15 AM on Friday 28 Nov 2014 (Local Time) from KGCD Reporting Station
Drizzle Drizzle  
Wind Chill: 37°   Ceiling: 2300
Heat Index: 44°   Visibility: 7mi
Dew Point: 38°   Wind: 14mph
Humidity: 80%   Direction: 230°SW
Pressure: 29.78"   Gusts: 17mph
Location:  44.83°N, 119.79°W
Report Text: KGCD 281915Z AUTO 23012G15KT 7SM DZ BKN023 OVC033 06/03 A2978 RMK AO2 T00640032
Loading
Personal Weather Stations






























Interactive Weather Map New forecast layout! Learn more

10-Day Weather Forecast

Advertisements
Track Severe Weather on mobile